Air Force Village West, CA

2:41 AM PDT on August 30, 2014 (GMT -0700)
Orangecrest | Change Station
CLOSE
Current Station
Personal Weather Station
Location: Riverside, CA
Elevation: 1683 ft
Nearby Weather Stations

Elev 1683 ft 33.90 °N, 117.30 °W | Updated 8 minutes ago

Clear
Clear
66.8 °F
Feels Like 66.8 °F
N
0.0
Wind Variable Wind from West
Gusts 0.0 mph

Today
High -- | Low -- °F
--% Chance of Precip.
Yesterday
High -- | Low -- °F
Precip. -- in
6:21 AM 7:17 PM
Waxing Crescent, 20% visible
Pressure 29.81 in
Visibility 10.0 miles
Clouds Clear
Dew Point 56 °F
Humidity 68%
Rainfall 0.00 in
Snow Depth Not available.
UV 0 out of 12
Pollen 7.80 out of 12
Ozone Good
Flu Activity Not available.
METAR KRIV 300858Z AUTO 00000KT 10SM CLR 19/12 A2985 RMK AO2 SLP092 T01900122 57008

More Conditions Fewer Conditions

Pressure 29.81 in
Visibility 10.0 miles
Clouds Clear
Dew Point 56 °F
Humidity 68%
Rainfall 0.00 in
Snow Depth Not available.
UV 0 out of 12
Pollen 7.80 out of 12
Ozone Good
Flu Activity Not available.
METAR KRIV 300858Z AUTO 00000KT 10SM CLR 19/12 A2985 RMK AO2 SLP092 T01900122 57008

More Conditions Fewer Conditions

10-Day Weather Forecast

Almanac

Astronomy

Aug. 30, 2014 Rise Set
Actual Time 6:21 AM PDT 7:17 PM PDT
Civil Twilight 5:55 AM PDT 7:42 PM PDT
Nautical Twilight 5:25 AM PDT 8:12 PM PDT
Astronomical Twilight 4:54 AM PDT 8:44 PM PDT
Moon 10:58 AM PDT 10:10 PM PDT
Length of Visible Light 13h 46m
Length of Day
12h 55m
Tomorrow will be 2m 0s shorter.
Waxing Crescent, 20% of the Moon is Illuminated
Today
Waxing Crescent
Sep 2
First Quarter
Sep 8
Full
Sep 15
Last Quarter
Sep 24
New

Today's Extremes

State Highs State Lows

Community

WunderPhotos

Upload Photos

1,748,475 photos uploaded!

Nearby

Air Quality

  Air Quality AQ Index Pollutant
Yesterday Moderate
OZONE
Yesterday Good
PM10
Current Good
OZONE
Sunday Good
PM10
Sunday Unhealthy for Sensitive Groups
OZONE
Sunday Good
CO
Sunday Good
NO2

Snow Depth

Station Depth Elevation
Leavitt Lake 0 in 9400 ft
Leavitt Meadows 1 in 7200 ft
Summit Meadow 0 in 9122 ft
Monitor Pass 0 in 8350 ft
Blue Lakes 0 in 8000 ft

Earthquake Activity

City Distance Mag. Time & Date
No recent earthquake activity has been reported nearby.
Minimum magnitude displayed is 2.5.

Coastal Water Temperatures

Place Temperature
No Stations Reporting

Nearby Weather Stations